Time;durP1;ratioP1;P1;durP2;ratioP2;P2;SDS_P1;SDS_P2;PMS_P1;PMS_P2;Temp;Humidity;BMP_temperature;BMP_pressure;BME280_temperature;BME280_humidity;BME280_pressure;Samples;Min_cycle;Max_cycle;Signal;HPM_P1;HPM_P2
2022/11/26 00:01:38;;;;;;;92.88;40.78;;;;;;;;;;5093153;28;20469;-72
2022/11/26 00:04:05;;;;;;;28.75;10.00;;;;;;;;;;5093066;28;20028;-73
2022/11/26 00:06:39;;;;;;;12.40;3.28;;;;;;;;;;5092565;28;20035;-72
2022/11/26 00:09:07;;;;;;;28.90;10.18;;;;;;;;;;5092619;28;20030;-72
2022/11/26 00:11:33;;;;;;;27.25;10.23;;;;;;;;;;5092788;28;20481;-72
2022/11/26 00:13:59;;;;;;;16.70;3.22;;;;;;;;;;5092658;28;20496;-72
2022/11/26 00:16:26;;;;;;;14.20;3.28;;;;;;;;;;5092598;28;20038;-73
2022/11/26 00:18:52;;;;;;;9.98;2.42;;;;;;;;;;5092612;28;20481;-72
2022/11/26 00:21:24;;;;;;;24.25;9.60;;;;;;;;;;5083155;28;20031;-72
2022/11/26 00:23:50;;;;;;;60.10;24.83;;;;;;;;;;5054656;28;20555;-72
2022/11/26 00:26:18;;;;;;;38.53;13.02;;;;;;;;;;5072077;28;20036;-72
2022/11/26 00:28:50;;;;;;;22.20;6.82;;;;;;;;;;5071863;28;20024;-73
2022/11/26 00:31:16;;;;;;;16.55;6.63;;;;;;;;;;5072121;28;20031;-72
2022/11/26 00:33:42;;;;;;;17.85;6.53;;;;;;;;;;5072387;28;20035;-72
2022/11/26 00:36:15;;;;;;;22.00;5.53;;;;;;;;;;5054520;28;20029;-73
2022/11/26 00:38:41;;;;;;;10.23;2.65;;;;;;;;;;5072215;28;20059;-72
2022/11/26 00:41:17;;;;;;;11.73;2.63;;;;;;;;;;5072066;28;20023;-72
2022/11/26 00:43:45;;;;;;;9.00;2.83;;;;;;;;;;5071756;28;20024;-72
2022/11/26 00:46:15;;;;;;;11.95;3.00;;;;;;;;;;5072054;28;20027;-72
2022/11/26 00:48:41;;;;;;;14.73;3.55;;;;;;;;;;5072060;28;20033;-72
2022/11/26 00:51:28;;;;;;;10.82;2.90;;;;;;;;;;5072040;28;20035;-72
2022/11/26 00:53:55;;;;;;;7.45;2.80;;;;;;;;;;5071974;28;20025;-72
2022/11/26 00:56:22;;;;;;;9.38;3.15;;;;;;;;;;5070840;28;20024;-72
2022/11/26 00:58:49;;;;;;;10.77;3.67;;;;;;;;;;5072027;28;20031;-72
2022/11/26 01:01:20;;;;;;;16.75;4.80;;;;;;;;;;5072292;28;20058;-72
2022/11/26 01:03:47;;;;;;;19.08;6.65;;;;;;;;;;5072219;28;20173;-72
2022/11/26 01:06:15;;;;;;;16.42;6.07;;;;;;;;;;5071895;28;20043;-72
2022/11/26 01:08:42;;;;;;;16.48;4.90;;;;;;;;;;5074152;28;20025;-72
2022/11/26 01:11:11;;;;;;;19.27;5.47;;;;;;;;;;5076168;28;20043;-72
2022/11/26 01:13:37;;;;;;;17.58;7.28;;;;;;;;;;5075502;28;20477;-72
2022/11/26 01:16:06;;;;;;;15.68;5.43;;;;;;;;;;5075664;28;20033;-72
2022/11/26 01:18:34;;;;;;;10.85;3.75;;;;;;;;;;5076105;28;20037;-72
2022/11/26 01:21:00;;;;;;;17.05;5.55;;;;;;;;;;5081933;28;20028;-72
2022/11/26 01:23:27;;;;;;;14.82;3.97;;;;;;;;;;5096091;28;20030;-72
2022/11/26 01:25:53;;;;;;;12.95;2.95;;;;;;;;;;5095517;28;20032;-72
2022/11/26 01:28:19;;;;;;;12.50;2.70;;;;;;;;;;5095678;28;20016;-73
2022/11/26 01:30:46;;;;;;;8.30;2.22;;;;;;;;;;5096038;28;20026;-73
2022/11/26 01:33:12;;;;;;;7.68;2.20;;;;;;;;;;5095760;28;20495;-72
2022/11/26 01:35:39;;;;;;;7.90;1.90;;;;;;;;;;5095750;28;20028;-72
2022/11/26 01:38:05;;;;;;;12.68;2.10;;;;;;;;;;5095857;28;20020;-72
2022/11/26 01:40:48;;;;;;;12.70;2.85;;;;;;;;;;5091036;28;20039;-72
2022/11/26 01:43:19;;;;;;;7.70;2.50;;;;;;;;;;5075296;28;20474;-72
2022/11/26 01:45:46;;;;;;;13.13;2.47;;;;;;;;;;5075057;28;20043;-72
2022/11/26 01:48:23;;;;;;;9.50;2.70;;;;;;;;;;5075120;28;20052;-72
2022/11/26 01:50:57;;;;;;;9.57;2.90;;;;;;;;;;5075150;28;20428;-72
2022/11/26 01:53:42;;;;;;;11.15;3.10;;;;;;;;;;5073828;28;20024;-72
2022/11/26 01:56:27;;;;;;;11.05;3.60;;;;;;;;;;5075076;28;20037;-72
2022/11/26 01:58:56;;;;;;;12.93;3.05;;;;;;;;;;5075536;28;20051;-72
2022/11/26 02:01:23;;;;;;;14.15;3.65;;;;;;;;;;5074766;28;20455;-72
2022/11/26 02:04:10;;;;;;;12.68;4.00;;;;;;;;;;5074933;28;20023;-72
2022/11/26 02:06:36;;;;;;;15.75;5.28;;;;;;;;;;5074799;28;20089;-72
2022/11/26 02:09:04;;;;;;;15.25;5.18;;;;;;;;;;5074623;28;20025;-72
2022/11/26 02:11:31;;;;;;;15.73;5.38;;;;;;;;;;5074557;28;20024;-73
2022/11/26 02:14:05;;;;;;;14.32;5.72;;;;;;;;;;5074842;28;20033;-72
2022/11/26 02:16:35;;;;;;;9.80;3.35;;;;;;;;;;5074778;28;20033;-72
2022/11/26 02:19:19;;;;;;;8.82;3.83;;;;;;;;;;5074493;28;20024;-72
2022/11/26 02:21:53;;;;;;;16.70;3.50;;;;;;;;;;5087013;28;20517;-72
2022/11/26 02:24:19;;;;;;;25.25;7.13;;;;;;;;;;5094390;28;20477;-72
2022/11/26 02:27:07;;;;;;;29.52;11.25;;;;;;;;;;5094903;28;20052;-72
2022/11/26 02:29:48;;;;;;;20.23;7.32;;;;;;;;;;5094639;28;20388;-72
2022/11/26 02:32:20;;;;;;;20.33;6.20;;;;;;;;;;5076522;28;20076;-72
2022/11/26 02:34:58;;;;;;;15.25;5.57;;;;;;;;;;5094674;28;20384;-72
2022/11/26 02:37:31;;;;;;;16.80;5.05;;;;;;;;;;5094488;28;20380;-73
2022/11/26 02:39:58;;;;;;;12.18;3.88;;;;;;;;;;5093961;28;20055;-72
2022/11/26 02:42:26;;;;;;;13.65;4.18;;;;;;;;;;5094333;28;20020;-72
2022/11/26 02:44:55;;;;;;;14.02;3.53;;;;;;;;;;5094402;28;20027;-72
2022/11/26 02:47:22;;;;;;;15.15;2.75;;;;;;;;;;5076120;28;20481;-73
2022/11/26 02:49:49;;;;;;;15.93;2.58;;;;;;;;;;5076313;28;20030;-72
2022/11/26 02:52:16;;;;;;;6.60;2.03;;;;;;;;;;5094296;28;20403;-72
2022/11/26 02:54:43;;;;;;;10.25;2.60;;;;;;;;;;5092535;28;20026;-72
2022/11/26 02:57:12;;;;;;;8.55;2.17;;;;;;;;;;5094178;28;20502;-72
2022/11/26 02:59:38;;;;;;;10.00;2.70;;;;;;;;;;5094026;28;20434;-72
2022/11/26 03:02:08;;;;;;;9.50;2.67;;;;;;;;;;5094102;28;20051;-72
2022/11/26 03:04:36;;;;;;;10.75;1.85;;;;;;;;;;5093942;28;20051;-72
2022/11/26 03:07:03;;;;;;;14.75;2.58;;;;;;;;;;5093909;28;20031;-72
2022/11/26 03:09:48;;;;;;;10.00;2.67;;;;;;;;;;5093914;28;20020;-72
2022/11/26 03:12:15;;;;;;;10.52;2.20;;;;;;;;;;5093974;28;20024;-72
2022/11/26 03:14:41;;;;;;;10.02;3.40;;;;;;;;;;5092552;28;20034;-72
2022/11/26 03:17:07;;;;;;;10.20;2.75;;;;;;;;;;5093815;28;20028;-72
2022/11/26 03:19:34;;;;;;;13.00;3.17;;;;;;;;;;5094128;28;20074;-72
2022/11/26 03:22:00;;;;;;;11.38;3.15;;;;;;;;;;5093259;28;20024;-72
2022/11/26 03:24:26;;;;;;;12.55;2.60;;;;;;;;;;5093750;28;20097;-72
2022/11/26 03:26:52;;;;;;;8.27;2.60;;;;;;;;;;5093628;28;20515;-72
2022/11/26 03:29:19;;;;;;;11.93;2.65;;;;;;;;;;5093348;28;20020;-72
2022/11/26 03:31:45;;;;;;;8.77;2.95;;;;;;;;;;5092451;28;20400;-72
2022/11/26 03:34:11;;;;;;;11.68;3.10;;;;;;;;;;5093698;28;20024;-72
2022/11/26 03:36:38;;;;;;;11.23;3.10;;;;;;;;;;5093564;28;20038;-72
2022/11/26 03:39:04;;;;;;;13.95;3.28;;;;;;;;;;5093381;28;20048;-72
2022/11/26 03:41:31;;;;;;;12.48;3.78;;;;;;;;;;5080827;28;20028;-72
2022/11/26 03:43:57;;;;;;;12.93;3.78;;;;;;;;;;5073042;28;20401;-72
2022/11/26 03:46:23;;;;;;;8.85;2.70;;;;;;;;;;5072885;28;20032;-72
2022/11/26 03:48:50;;;;;;;14.85;3.55;;;;;;;;;;5072773;28;20031;-73
2022/11/26 03:51:16;;;;;;;10.40;3.20;;;;;;;;;;5072769;28;20101;-72
2022/11/26 03:53:42;;;;;;;10.13;2.72;;;;;;;;;;5072772;28;20031;-72
2022/11/26 03:56:09;;;;;;;9.25;2.60;;;;;;;;;;5072826;28;20024;-72
2022/11/26 03:58:36;;;;;;;14.02;3.42;;;;;;;;;;5072957;28;20260;-72
2022/11/26 04:01:09;;;;;;;14.38;3.13;;;;;;;;;;5072676;28;20031;-72
2022/11/26 04:03:35;;;;;;;9.45;3.30;;;;;;;;;;5072704;28;20013;-72
2022/11/26 04:06:02;;;;;;;10.25;2.83;;;;;;;;;;5071134;28;20047;-72
2022/11/26 04:08:28;;;;;;;17.08;3.67;;;;;;;;;;5072874;28;20028;-72
2022/11/26 04:10:55;;;;;;;14.23;3.42;;;;;;;;;;5072807;28;20028;-72
2022/11/26 04:13:21;;;;;;;13.00;3.72;;;;;;;;;;5072618;28;20477;-73
2022/11/26 04:15:48;;;;;;;9.00;3.22;;;;;;;;;;5071183;28;20033;-73
2022/11/26 04:18:14;;;;;;;9.50;3.10;;;;;;;;;;5072843;28;20496;-72
2022/11/26 04:20:40;;;;;;;11.40;3.15;;;;;;;;;;5075369;28;20412;-72
2022/11/26 04:23:07;;;;;;;15.27;3.40;;;;;;;;;;5092618;28;20028;-71
2022/11/26 04:25:33;;;;;;;12.48;3.10;;;;;;;;;;5092721;28;20046;-72
2022/11/26 04:28:00;;;;;;;9.82;3.05;;;;;;;;;;5074612;28;20020;-72
2022/11/26 04:30:26;;;;;;;10.65;3.15;;;;;;;;;;5092279;28;20023;-72
2022/11/26 04:32:52;;;;;;;8.07;2.72;;;;;;;;;;5092353;28;20028;-72
2022/11/26 04:35:19;;;;;;;10.90;3.00;;;;;;;;;;5092421;28;20028;-72
2022/11/26 04:37:45;;;;;;;11.25;3.42;;;;;;;;;;5092227;28;20030;-72
2022/11/26 04:40:12;;;;;;;11.35;3.00;;;;;;;;;;5092274;28;20028;-72
2022/11/26 04:42:38;;;;;;;13.60;3.80;;;;;;;;;;5091887;28;20400;-72
2022/11/26 04:45:05;;;;;;;13.63;2.97;;;;;;;;;;5092339;28;20504;-72
2022/11/26 04:47:31;;;;;;;10.63;3.30;;;;;;;;;;5092425;28;20519;-72
2022/11/26 04:49:58;;;;;;;7.65;3.45;;;;;;;;;;5091764;28;20105;-73
2022/11/26 04:52:24;;;;;;;10.80;3.15;;;;;;;;;;5092473;28;20026;-73
2022/11/26 04:54:50;;;;;;;10.15;3.75;;;;;;;;;;5092392;28;20020;-72
2022/11/26 04:57:17;;;;;;;13.85;3.35;;;;;;;;;;5092459;28;20028;-72
2022/11/26 04:59:43;;;;;;;10.48;3.22;;;;;;;;;;5092085;28;20016;-72
2022/11/26 05:02:09;;;;;;;10.43;3.28;;;;;;;;;;5092236;28;20035;-73
2022/11/26 05:04:36;;;;;;;6.65;2.65;;;;;;;;;;5091794;28;20393;-72
2022/11/26 05:07:02;;;;;;;7.90;2.60;;;;;;;;;;5074073;28;20510;-72
2022/11/26 05:09:28;;;;;;;7.80;3.00;;;;;;;;;;5092225;28;20034;-72
2022/11/26 05:11:55;;;;;;;9.30;1.98;;;;;;;;;;5092156;28;20088;-72
2022/11/26 05:14:21;;;;;;;10.45;2.83;;;;;;;;;;5092015;28;20017;-72
2022/11/26 05:16:47;;;;;;;6.97;2.20;;;;;;;;;;5092043;28;20027;-72
2022/11/26 05:19:14;;;;;;;10.85;2.25;;;;;;;;;;5091567;28;20016;-72
2022/11/26 05:21:40;;;;;;;8.23;2.15;;;;;;;;;;5091783;28;20032;-72
2022/11/26 05:24:07;;;;;;;7.90;2.08;;;;;;;;;;5092117;28;20016;-72
2022/11/26 05:26:33;;;;;;;9.35;2.17;;;;;;;;;;5091951;28;20035;-72
2022/11/26 05:29:00;;;;;;;9.07;2.47;;;;;;;;;;5092055;28;20024;-72
2022/11/26 05:31:27;;;;;;;12.88;3.00;;;;;;;;;;5091906;28;20016;-72
2022/11/26 05:33:54;;;;;;;8.88;2.67;;;;;;;;;;5091346;28;20026;-72
2022/11/26 05:36:20;;;;;;;17.23;8.07;;;;;;;;;;5091855;28;20020;-73
2022/11/26 05:38:46;;;;;;;10.68;3.30;;;;;;;;;;5091738;28;20048;-72
2022/11/26 05:41:13;;;;;;;9.35;3.75;;;;;;;;;;5091789;28;20027;-72
2022/11/26 05:43:39;;;;;;;10.27;4.00;;;;;;;;;;5091797;28;20030;-72
2022/11/26 05:46:07;;;;;;;8.10;3.33;;;;;;;;;;5091397;28;20047;-72
2022/11/26 05:48:33;;;;;;;9.07;3.40;;;;;;;;;;5091347;28;20396;-72
2022/11/26 05:51:00;;;;;;;10.25;3.22;;;;;;;;;;5091522;28;20024;-72
2022/11/26 05:53:26;;;;;;;11.07;3.22;;;;;;;;;;5092006;28;20020;-72
2022/11/26 05:55:53;;;;;;;11.05;3.60;;;;;;;;;;5093976;28;20487;-72
2022/11/26 05:58:19;;;;;;;11.57;3.70;;;;;;;;;;5095645;28;20020;-72
2022/11/26 06:00:45;;;;;;;15.40;4.50;;;;;;;;;;5095379;28;20020;-72
2022/11/26 06:03:12;;;;;;;22.70;10.38;;;;;;;;;;5094657;28;20034;-72
2022/11/26 06:05:38;;;;;;;20.80;7.07;;;;;;;;;;5095312;28;20031;-72
2022/11/26 06:08:04;;;;;;;11.95;6.72;;;;;;;;;;5095242;28;20028;-72
2022/11/26 06:10:31;;;;;;;14.68;6.10;;;;;;;;;;5093520;28;20038;-72
2022/11/26 06:12:57;;;;;;;20.63;5.28;;;;;;;;;;5095038;28;20511;-72
2022/11/26 06:15:23;;;;;;;12.43;4.35;;;;;;;;;;5094970;28;20396;-72
2022/11/26 06:17:50;;;;;;;13.57;4.85;;;;;;;;;;5094516;28;20020;-72
2022/11/26 06:20:16;;;;;;;10.95;5.20;;;;;;;;;;5094819;28;20020;-72
2022/11/26 06:22:43;;;;;;;12.70;5.22;;;;;;;;;;5095205;28;20035;-72
2022/11/26 06:25:10;;;;;;;14.70;5.55;;;;;;;;;;5094890;28;20396;-73
2022/11/26 06:27:37;;;;;;;13.32;5.40;;;;;;;;;;5094783;28;20024;-72
2022/11/26 06:30:04;;;;;;;15.13;6.00;;;;;;;;;;5094463;28;20032;-72
2022/11/26 06:32:30;;;;;;;9.95;5.57;;;;;;;;;;5094300;28;20465;-72
2022/11/26 06:34:57;;;;;;;12.38;6.18;;;;;;;;;;5076781;28;20032;-73
2022/11/26 06:37:23;;;;;;;17.40;6.78;;;;;;;;;;5094891;28;20032;-72
2022/11/26 06:39:50;;;;;;;14.40;6.53;;;;;;;;;;5094257;28;20428;-72
2022/11/26 06:42:16;;;;;;;16.52;7.07;;;;;;;;;;5075635;28;20024;-72
2022/11/26 06:44:42;;;;;;;21.40;8.10;;;;;;;;;;5074231;28;20054;-72
2022/11/26 06:47:12;;;;;;;21.88;8.13;;;;;;;;;;5073805;28;20047;-72
2022/11/26 06:49:39;;;;;;;22.42;7.82;;;;;;;;;;5074119;28;20062;-72
2022/11/26 06:52:05;;;;;;;20.40;8.60;;;;;;;;;;5074122;28;20037;-72
2022/11/26 06:54:32;;;;;;;15.18;8.88;;;;;;;;;;5074008;28;20035;-72
2022/11/26 06:56:58;;;;;;;21.88;10.05;;;;;;;;;;5074267;28;20026;-72
2022/11/26 06:59:24;;;;;;;20.70;8.50;;;;;;;;;;5073879;28;20035;-72
2022/11/26 07:01:51;;;;;;;17.17;9.43;;;;;;;;;;5074395;28;20035;-72
2022/11/26 07:04:17;;;;;;;16.50;8.65;;;;;;;;;;5074012;28;20033;-74
2022/11/26 07:06:44;;;;;;;19.08;8.23;;;;;;;;;;5073533;28;20400;-71
2022/11/26 07:09:11;;;;;;;22.38;8.88;;;;;;;;;;5056138;28;20025;-72
2022/11/26 07:11:37;;;;;;;16.48;7.28;;;;;;;;;;5073832;28;20028;-72
2022/11/26 07:14:04;;;;;;;19.40;8.95;;;;;;;;;;5073276;28;20028;-72
2022/11/26 07:16:31;;;;;;;20.60;11.68;;;;;;;;;;5073662;28;20024;-72
2022/11/26 07:18:58;;;;;;;36.10;15.82;;;;;;;;;;5073354;28;20027;-72
2022/11/26 07:21:24;;;;;;;20.20;10.35;;;;;;;;;;5083403;28;20030;-72
2022/11/26 07:23:51;;;;;;;15.23;7.15;;;;;;;;;;5093748;28;20020;-72
2022/11/26 07:26:18;;;;;;;15.32;6.22;;;;;;;;;;5093635;28;20036;-72
2022/11/26 07:28:48;;;;;;;36.90;10.10;;;;;;;;;;5093393;28;20046;-72
2022/11/26 07:31:16;;;;;;;36.58;10.93;;;;;;;;;;5093890;28;20023;-72
2022/11/26 07:33:42;;;;;;;68.03;17.42;;;;;;;;;;5093835;28;20020;-72
2022/11/26 07:36:13;;;;;;;35.63;15.02;;;;;;;;;;5093496;28;20034;-72
2022/11/26 07:38:39;;;;;;;21.70;9.57;;;;;;;;;;5093302;28;20485;-71
2022/11/26 07:41:07;;;;;;;17.27;8.07;;;;;;;;;;5084419;28;20027;-72
2022/11/26 07:43:34;;;;;;;22.67;9.43;;;;;;;;;;5072929;28;20065;-72
2022/11/26 07:46:02;;;;;;;16.42;7.80;;;;;;;;;;5055268;28;20032;-72
2022/11/26 07:48:31;;;;;;;19.92;9.05;;;;;;;;;;5073210;28;20481;-72
2022/11/26 07:50:58;;;;;;;18.75;9.82;;;;;;;;;;5073117;28;20025;-72
2022/11/26 07:53:26;;;;;;;14.32;8.40;;;;;;;;;;5072898;28;20025;-72
2022/11/26 07:55:53;;;;;;;16.48;7.90;;;;;;;;;;5072936;28;20016;-72
2022/11/26 07:58:19;;;;;;;22.15;9.52;;;;;;;;;;5072367;28;20024;-72
2022/11/26 08:00:45;;;;;;;25.55;10.65;;;;;;;;;;5073036;28;20016;-72
2022/11/26 08:03:12;;;;;;;72.22;32.80;;;;;;;;;;5072952;28;20060;-72
2022/11/26 08:05:44;;;;;;;36.13;16.67;;;;;;;;;;5072571;28;20416;-72
2022/11/26 08:08:11;;;;;;;28.90;14.48;;;;;;;;;;5073002;28;20025;-72
2022/11/26 08:10:38;;;;;;;18.63;9.27;;;;;;;;;;5072320;28;20024;-72
2022/11/26 08:13:05;;;;;;;73.07;32.05;;;;;;;;;;5072230;28;20028;-72
2022/11/26 08:15:33;;;;;;;22.00;11.43;;;;;;;;;;5072663;28;20020;-72
2022/11/26 08:17:59;;;;;;;21.55;11.20;;;;;;;;;;5071813;28;20029;-72
2022/11/26 08:20:25;;;;;;;19.08;9.52;;;;;;;;;;5073876;28;20465;-72
2022/11/26 08:22:51;;;;;;;21.15;9.32;;;;;;;;;;5092753;28;20085;-72
2022/11/26 08:25:18;;;;;;;20.60;9.85;;;;;;;;;;5092378;28;20483;-72
2022/11/26 08:27:44;;;;;;;17.33;9.88;;;;;;;;;;5092219;28;20370;-72
2022/11/26 08:30:13;;;;;;;22.83;10.63;;;;;;;;;;5092933;28;20084;-72
2022/11/26 08:32:39;;;;;;;16.48;9.60;;;;;;;;;;5092508;28;20021;-72
2022/11/26 08:35:05;;;;;;;19.13;9.75;;;;;;;;;;5092800;28;20028;-72
2022/11/26 08:37:32;;;;;;;41.95;20.23;;;;;;;;;;5092458;28;20083;-72
2022/11/26 08:39:58;;;;;;;22.27;10.30;;;;;;;;;;5092288;28;20040;-72
2022/11/26 08:42:24;;;;;;;23.08;11.85;;;;;;;;;;5072235;28;20521;-72
2022/11/26 08:44:51;;;;;;;25.30;11.98;;;;;;;;;;5072571;28;20035;-72
2022/11/26 08:47:17;;;;;;;19.15;10.50;;;;;;;;;;5072147;28;20036;-72
2022/11/26 08:49:43;;;;;;;26.55;12.13;;;;;;;;;;5072284;28;20021;-72
2022/11/26 08:52:10;;;;;;;23.13;12.35;;;;;;;;;;5072236;28;20134;-72
2022/11/26 08:54:36;;;;;;;19.38;11.50;;;;;;;;;;5072160;28;20021;-72
2022/11/26 08:57:04;;;;;;;19.02;10.25;;;;;;;;;;5071602;28;20418;-72
2022/11/26 08:59:30;;;;;;;19.33;10.57;;;;;;;;;;5072168;28;20025;-72
2022/11/26 09:01:57;;;;;;;17.27;8.68;;;;;;;;;;5071895;28;20043;-72
2022/11/26 09:04:23;;;;;;;15.27;8.90;;;;;;;;;;5072112;28;20032;-72
2022/11/26 09:06:49;;;;;;;18.00;9.05;;;;;;;;;;5072021;28;20039;-72
2022/11/26 09:09:16;;;;;;;14.50;8.45;;;;;;;;;;5071904;28;20062;-72
2022/11/26 09:11:42;;;;;;;15.00;7.20;;;;;;;;;;5071317;28;20030;-72
2022/11/26 09:14:09;;;;;;;15.18;6.97;;;;;;;;;;5054242;28;20031;-72
2022/11/26 09:16:36;;;;;;;18.60;8.93;;;;;;;;;;5071654;28;20509;-72
2022/11/26 09:19:03;;;;;;;15.18;7.30;;;;;;;;;;5072123;28;20016;-72
2022/11/26 09:21:30;;;;;;;17.95;8.43;;;;;;;;;;5082283;28;20028;-72
2022/11/26 09:23:56;;;;;;;14.38;6.65;;;;;;;;;;5091920;28;20038;-72
2022/11/26 09:26:24;;;;;;;13.23;6.63;;;;;;;;;;5091471;28;20039;-72
2022/11/26 09:28:50;;;;;;;13.27;6.28;;;;;;;;;;5093065;28;20015;-72
2022/11/26 09:31:17;;;;;;;26.60;12.45;;;;;;;;;;5095820;28;20453;-72
2022/11/26 09:33:44;;;;;;;90.72;41.75;;;;;;;;;;5096022;28;20026;-72
2022/11/26 09:36:12;;;;;;;18.83;9.85;;;;;;;;;;5078062;28;20035;-72
2022/11/26 09:38:39;;;;;;;26.02;13.60;;;;;;;;;;5095561;28;20493;-72
2022/11/26 09:41:29;;;;;;;39.03;18.60;;;;;;;;;;5086164;28;20036;-72
2022/11/26 09:44:34;;;;;;;46.72;22.08;;;;;;;;;;5075747;28;20032;-73
2022/11/26 09:47:06;;;;;;;14.60;7.80;;;;;;;;;;5032965;28;20132;-72
2022/11/26 09:49:55;;;;;;;19.38;8.80;;;;;;;;;;5033262;28;20415;-72
2022/11/26 09:52:23;;;;;;;18.40;7.95;;;;;;;;;;4974098;28;20381;-72
2022/11/26 09:54:51;;;;;;;22.08;9.38;;;;;;;;;;4973914;28;20045;-72
2022/11/26 09:57:21;;;;;;;44.03;24.70;;;;;;;;;;4974136;28;20037;-72
2022/11/26 09:59:49;;;;;;;31.88;18.52;;;;;;;;;;4986938;28;20044;-72
2022/11/26 10:02:15;;;;;;;23.85;8.40;;;;;;;;;;4993547;28;20029;-72
2022/11/26 10:04:42;;;;;;;16.60;7.53;;;;;;;;;;4993633;28;20049;-72
2022/11/26 10:07:23;;;;;;;42.75;22.17;;;;;;;;;;4993526;28;20498;-72
2022/11/26 10:09:49;;;;;;;;;;;;;;;;;;4993137;28;20026;-72
2022/11/26 10:12:21;;;;;;;32.95;12.00;;;;;;;;;;4993274;28;19905;-72
2022/11/26 10:15:05;;;;;;;22.80;9.55;;;;;;;;;;4993496;28;20046;-72
2022/11/26 10:17:31;;;;;;;14.80;6.43;;;;;;;;;;5009538;28;20059;-72
2022/11/26 10:20:07;;;;;;;21.17;8.23;;;;;;;;;;5032841;28;20025;-72
2022/11/26 10:22:47;;;;;;;18.95;8.70;;;;;;;;;;5031740;28;20041;-72
2022/11/26 10:25:15;;;;;;;17.65;8.10;;;;;;;;;;5015883;28;20022;-72
2022/11/26 10:27:41;;;;;;;11.75;6.78;;;;;;;;;;5032624;28;20037;-72
2022/11/26 10:30:22;;;;;;;14.43;7.32;;;;;;;;;;5084197;28;20036;-72
2022/11/26 10:32:49;;;;;;;12.50;6.82;;;;;;;;;;5094698;28;20024;-72
2022/11/26 10:35:17;;;;;;;13.27;6.97;;;;;;;;;;5094494;28;20036;-72
2022/11/26 10:37:43;;;;;;;18.50;8.02;;;;;;;;;;5094074;28;20027;-72
2022/11/26 10:40:24;;;;;;;17.00;7.55;;;;;;;;;;5094156;28;20028;-72
2022/11/26 10:42:59;;;;;;;16.23;7.63;;;;;;;;;;5076994;28;20038;-72
2022/11/26 10:45:26;;;;;;;22.30;10.32;;;;;;;;;;5094618;28;20027;-72
2022/11/26 10:47:53;;;;;;;20.00;10.32;;;;;;;;;;5094499;28;20020;-72
2022/11/26 10:50:26;;;;;;;23.90;11.15;;;;;;;;;;5094363;28;20016;-72
2022/11/26 10:52:52;;;;;;;17.83;8.35;;;;;;;;;;5093994;28;20485;-72
2022/11/26 10:55:25;;;;;;;15.07;7.65;;;;;;;;;;5094244;28;20039;-72
2022/11/26 10:57:53;;;;;;;20.40;9.27;;;;;;;;;;5094201;28;20097;-72
2022/11/26 11:00:45;;;;;;;21.67;10.77;;;;;;;;;;5094076;28;20012;-72
2022/11/26 11:03:16;;;;;;;18.13;9.10;;;;;;;;;;5092455;28;20097;-72
2022/11/26 11:05:43;;;;;;;16.50;8.07;;;;;;;;;;5093909;28;20062;-72
2022/11/26 11:08:30;;;;;;;14.10;8.02;;;;;;;;;;5094386;28;20032;-72
2022/11/26 11:10:57;;;;;;;15.15;8.23;;;;;;;;;;5093815;28;20024;-72
2022/11/26 11:13:38;;;;;;;17.23;8.95;;;;;;;;;;5094137;28;20027;-72
2022/11/26 11:16:04;;;;;;;16.17;8.13;;;;;;;;;;5094062;28;20022;-72
2022/11/26 11:18:30;;;;;;;14.55;7.20;;;;;;;;;;5093771;28;20366;-72
2022/11/26 11:20:59;;;;;;;15.77;7.90;;;;;;;;;;5093179;28;20028;-72
2022/11/26 11:23:27;;;;;;;16.35;7.45;;;;;;;;;;5093875;28;20030;-72
2022/11/26 11:26:08;;;;;;;10.88;6.55;;;;;;;;;;5093696;28;20028;-72
2022/11/26 11:28:38;;;;;;;13.68;7.30;;;;;;;;;;5093809;28;20030;-72
2022/11/26 11:31:05;;;;;;;18.48;9.07;;;;;;;;;;5093629;28;20024;-72
2022/11/26 11:33:31;;;;;;;15.80;8.85;;;;;;;;;;5093467;28;20034;-72
2022/11/26 11:36:02;;;;;;;15.00;8.20;;;;;;;;;;5093363;28;20036;-72
2022/11/26 11:38:30;;;;;;;15.60;6.63;;;;;;;;;;5093293;28;20412;-72
2022/11/26 11:40:57;;;;;;;18.85;10.05;;;;;;;;;;5085700;28;20032;-72
2022/11/26 11:43:25;;;;;;;13.27;6.47;;;;;;;;;;5072959;28;20024;-72
2022/11/26 11:45:55;;;;;;;9.68;4.78;;;;;;;;;;5073307;28;20035;-72
2022/11/26 11:48:21;;;;;;;7.88;2.92;;;;;;;;;;5055042;28;20016;-72
2022/11/26 11:50:55;;;;;;;10.18;3.22;;;;;;;;;;5072574;28;20024;-72
2022/11/26 11:53:34;;;;;;;9.07;2.85;;;;;;;;;;5054079;28;20029;-72
2022/11/26 11:56:15;;;;;;;6.53;2.70;;;;;;;;;;5073034;28;20032;-72
2022/11/26 11:58:53;;;;;;;8.52;2.85;;;;;;;;;;5072873;28;20031;-72
2022/11/26 12:01:20;;;;;;;8.10;2.70;;;;;;;;;;5054996;28;20493;-72
2022/11/26 12:03:52;;;;;;;7.57;2.80;;;;;;;;;;5072677;28;20093;-72
2022/11/26 12:06:31;;;;;;;6.88;2.60;;;;;;;;;;5054986;28;20505;-73
2022/11/26 12:09:10;;;;;;;5.05;2.75;;;;;;;;;;5072787;28;20019;-72
2022/11/26 12:12:09;;;;;;;6.80;2.50;;;;;;;;;;5072981;28;20030;-72
2022/11/26 12:14:38;;;;;;;9.55;3.13;;;;;;;;;;4991163;28;20038;-72
2022/11/26 12:17:24;;;;;;;5.25;2.25;;;;;;;;;;4991070;28;20522;-73
2022/11/26 12:19:54;;;;;;;8.90;4.28;;;;;;;;;;4990802;28;20041;-72
2022/11/26 12:22:23;;;;;;;4.90;2.38;;;;;;;;;;5007887;28;20022;-72
2022/11/26 12:24:49;;;;;;;9.32;4.10;;;;;;;;;;5010852;28;20119;-72
2022/11/26 12:27:30;;;;;;;8.20;4.65;;;;;;;;;;5010595;28;20034;-72
2022/11/26 12:30:02;;;;;;;11.00;4.35;;;;;;;;;;5010485;28;20251;-72
2022/11/26 12:32:37;;;;;;;8.40;5.18;;;;;;;;;;5010439;28;20477;-73
2022/11/26 12:35:10;;;;;;;11.73;5.65;;;;;;;;;;4993786;28;20491;-73
2022/11/26 12:37:39;;;;;;;11.82;6.47;;;;;;;;;;5010373;28;20048;-72
2022/11/26 12:40:09;;;;;;;16.15;6.57;;;;;;;;;;5010268;28;20041;-72
2022/11/26 12:42:50;;;;;;;6.88;3.50;;;;;;;;;;5010525;28;20030;-72
2022/11/26 12:45:16;;;;;;;;;;;;;;;;;;5010812;28;20057;-72
2022/11/26 12:47:46;;;;;;;11.75;7.18;;;;;;;;;;4993442;28;19909;-72
2022/11/26 12:50:15;;;;;;;14.65;4.82;;;;;;;;;;5053222;28;20035;-72
2022/11/26 12:52:47;;;;;;;6.97;3.88;;;;;;;;;;5092409;28;20031;-72
2022/11/26 12:55:16;;;;;;;8.95;4.00;;;;;;;;;;5074247;28;20032;-72
2022/11/26 12:57:55;;;;;;;8.63;3.67;;;;;;;;;;5092399;28;20023;-72
2022/11/26 13:00:34;;;;;;;9.95;2.35;;;;;;;;;;5092331;28;20024;-72
2022/11/26 13:03:01;;;;;;;6.70;2.83;;;;;;;;;;5092189;28;20026;-72
2022/11/26 13:05:30;;;;;;;15.32;3.92;;;;;;;;;;5078139;28;20027;-72
2022/11/26 13:08:08;;;;;;;7.57;4.38;;;;;;;;;;5096463;28;20043;-72
2022/11/26 13:10:38;;;;;;;11.70;5.07;;;;;;;;;;5096259;28;20020;-72
2022/11/26 13:13:07;;;;;;;8.82;4.15;;;;;;;;;;5096403;28;20028;-71
2022/11/26 13:15:43;;;;;;;10.35;3.75;;;;;;;;;;5096562;28;20419;-72
2022/11/26 13:18:42;;;;;;;11.32;3.67;;;;;;;;;;5096100;28;20035;-72
2022/11/26 13:21:27;;;;;;;5.82;3.47;;;;;;;;;;5004666;28;20047;-71
2022/11/26 13:23:53;;;;;;;5.53;2.25;;;;;;;;;;5033901;28;20037;-71
2022/11/26 13:26:35;;;;;;;9.15;3.08;;;;;;;;;;5017119;28;20042;-72
2022/11/26 13:29:19;;;;;;;8.50;3.50;;;;;;;;;;5033421;28;20497;-72
2022/11/26 13:31:48;;;;;;;9.15;3.83;;;;;;;;;;5033318;28;20033;-71
2022/11/26 13:34:21;;;;;;;6.80;3.30;;;;;;;;;;5033501;28;20029;-72
2022/11/26 13:36:47;;;;;;;10.65;3.97;;;;;;;;;;5033574;28;20037;-72
2022/11/26 13:39:32;;;;;;;11.90;4.13;;;;;;;;;;5040571;28;20051;-71
2022/11/26 13:42:01;;;;;;;12.13;3.60;;;;;;;;;;5036972;28;20083;-72
2022/11/26 13:44:33;;;;;;;8.63;3.13;;;;;;;;;;5033387;28;20037;-71
2022/11/26 13:47:03;;;;;;;9.15;3.35;;;;;;;;;;5032909;28;20048;-72
2022/11/26 13:49:39;;;;;;;7.47;3.17;;;;;;;;;;5033478;28;20046;-72
2022/11/26 13:52:25;;;;;;;10.15;4.55;;;;;;;;;;5033470;28;20036;-72
2022/11/26 13:54:54;;;;;;;12.70;4.57;;;;;;;;;;5032720;28;20390;-71
2022/11/26 13:57:23;;;;;;;10.00;3.70;;;;;;;;;;5064866;28;20036;-71
2022/11/26 13:59:54;;;;;;;8.35;3.88;;;;;;;;;;5074828;28;20013;-71
2022/11/26 14:02:36;;;;;;;11.15;3.75;;;;;;;;;;5074849;28;20048;-72
2022/11/26 14:05:09;;;;;;;7.68;3.42;;;;;;;;;;5074902;28;20102;-72
2022/11/26 14:07:36;;;;;;;7.72;3.42;;;;;;;;;;5074721;28;20040;-71
2022/11/26 14:10:03;;;;;;;11.10;3.97;;;;;;;;;;5074905;28;20023;-72
2022/11/26 14:12:49;;;;;;;11.20;4.00;;;;;;;;;;5074928;28;20033;-72
2022/11/26 14:15:33;;;;;;;7.22;3.25;;;;;;;;;;5073572;28;20027;-71
2022/11/26 14:18:00;;;;;;;13.88;3.78;;;;;;;;;;5074735;28;20417;-72
2022/11/26 14:20:26;;;;;;;6.30;3.40;;;;;;;;;;5074582;28;20029;-72
2022/11/26 14:22:52;;;;;;;12.23;4.60;;;;;;;;;;5074898;28;20427;-72
2022/11/26 14:25:36;;;;;;;12.27;4.40;;;;;;;;;;5074645;28;20024;-71
2022/11/26 14:28:04;;;;;;;9.93;4.00;;;;;;;;;;5074474;28;20043;-72
2022/11/26 14:30:31;;;;;;;8.65;3.67;;;;;;;;;;5074233;28;20066;-71
2022/11/26 14:33:00;;;;;;;9.98;4.03;;;;;;;;;;5074535;28;20444;-72
2022/11/26 14:35:28;;;;;;;6.72;3.25;;;;;;;;;;5074271;28;20375;-71
2022/11/26 14:37:56;;;;;;;7.47;2.88;;;;;;;;;;5076249;28;20027;-71
2022/11/26 14:40:24;;;;;;;15.15;5.60;;;;;;;;;;5091623;28;20032;-72
2022/11/26 14:43:05;;;;;;;14.77;6.15;;;;;;;;;;5074377;28;20020;-72
2022/11/26 14:45:31;;;;;;;;;;;;;;;;;;5074505;28;20028;-71
2022/11/26 14:47:58;;;;;;;17.67;7.75;;;;;;;;;;5074166;28;19918;-71